createdAt,value
2018-05-16T00:00:10.872Z,24.10
2018-05-16T00:02:40.259Z,22.87
2018-05-16T00:05:09.360Z,22.70
2018-05-16T00:07:38.532Z,21.47
2018-05-16T00:10:07.969Z,22.43
2018-05-16T00:12:37.232Z,21.53
2018-05-16T00:15:06.547Z,23.57
2018-05-16T00:17:35.597Z,24.50
2018-05-16T00:20:05.729Z,24.73
2018-05-16T00:22:35.027Z,24.93
2018-05-16T00:25:04.864Z,23.43
2018-05-16T00:27:34.235Z,26.20
2018-05-16T00:30:04.437Z,28.20
2018-05-16T00:32:33.436Z,29.57
2018-05-16T00:35:02.677Z,31.40
2018-05-16T00:37:32.072Z,33.37
2018-05-16T00:40:01.421Z,32.50
2018-05-16T00:42:30.704Z,36.50
2018-05-16T00:44:59.875Z,35.27
2018-05-16T00:47:29.235Z,35.73
2018-05-16T00:49:58.472Z,35.17
2018-05-16T00:52:27.884Z,33.33
2018-05-16T00:55:03.261Z,33.50
2018-05-16T00:57:32.520Z,37.13
2018-05-16T01:00:01.752Z,37.10
2018-05-16T01:02:31.095Z,41.00
2018-05-16T01:05:00.532Z,40.10
2018-05-16T01:07:29.836Z,39.63
2018-05-16T01:09:59.135Z,37.97
2018-05-16T01:12:28.492Z,40.37
2018-05-16T01:14:57.496Z,42.23
2018-05-16T01:17:26.736Z,42.10
2018-05-16T01:19:56.112Z,41.67
2018-05-16T01:22:25.440Z,40.60
2018-05-16T01:24:54.702Z,41.80
2018-05-16T01:27:24.031Z,40.17
2018-05-16T01:29:53.097Z,44.73
2018-05-16T01:32:22.363Z,43.20
2018-05-16T01:34:51.717Z,41.50
2018-05-16T01:37:21.037Z,41.77
2018-05-16T01:39:50.290Z,45.77
2018-05-16T01:42:19.636Z,45.70
2018-05-16T01:44:48.792Z,44.60
2018-05-16T01:47:17.940Z,46.53
2018-05-16T01:49:47.303Z,45.17
2018-05-16T01:52:16.640Z,43.60
2018-05-16T01:54:45.692Z,46.43
2018-05-16T01:57:15.037Z,45.30
2018-05-16T01:59:44.311Z,47.53
2018-05-16T02:02:13.408Z,47.50
2018-05-16T02:04:42.606Z,48.70
2018-05-16T02:07:11.924Z,49.73
2018-05-16T02:09:41.315Z,48.47
2018-05-16T02:12:10.643Z,46.60
2018-05-16T02:14:39.693Z,48.03
2018-05-16T02:17:08.937Z,45.83
2018-05-16T02:19:38.207Z,47.30
2018-05-16T02:22:07.556Z,49.67
2018-05-16T02:24:36.911Z,50.87
2018-05-16T02:27:06.014Z,49.07
2018-05-16T02:29:35.501Z,50.07
2018-05-16T02:32:04.609Z,49.60
2018-05-16T02:34:33.902Z,47.63
2018-05-16T02:37:03.128Z,46.87
2018-05-16T02:39:32.760Z,49.23
2018-05-16T02:42:01.977Z,44.77
2018-05-16T02:44:31.208Z,46.60
2018-05-16T02:47:07.124Z,46.70
2018-05-16T02:49:36.446Z,46.17
2018-05-16T02:52:05.631Z,46.10
2018-05-16T02:54:34.733Z,47.43
2018-05-16T02:57:03.964Z,45.97
2018-05-16T02:59:33.211Z,47.57
2018-05-16T03:02:02.566Z,46.70
2018-05-16T03:04:31.675Z,47.03
2018-05-16T03:07:00.894Z,46.77
2018-05-16T03:09:30.404Z,46.77
2018-05-16T03:11:59.661Z,43.70
2018-05-16T03:14:28.923Z,46.60
2018-05-16T03:16:58.168Z,50.37
2018-05-16T03:19:27.418Z,46.33
2018-05-16T03:21:56.580Z,48.33
2018-05-16T03:24:26.036Z,48.50
2018-05-16T03:26:55.389Z,46.97
2018-05-16T03:29:25.128Z,48.30
2018-05-16T03:31:54.356Z,49.27
2018-05-16T03:34:23.417Z,50.70
2018-05-16T03:36:52.668Z,48.17
2018-05-16T03:39:22.143Z,46.97
2018-05-16T03:41:51.388Z,47.30
2018-05-16T03:44:20.619Z,48.23
2018-05-16T03:46:49.964Z,49.17
2018-05-16T03:49:19.250Z,47.03
2018-05-16T03:51:48.569Z,47.13
2018-05-16T03:54:17.843Z,48.90
2018-05-16T03:56:46.999Z,47.40
2018-05-16T04:03:42.632Z,46.77
2018-05-16T04:06:11.306Z,51.23
2018-05-16T04:08:39.955Z,50.80
2018-05-16T04:11:08.655Z,49.40
2018-05-16T04:13:37.256Z,50.67
